Time;durP1;ratioP1;P1;durP2;ratioP2;P2;SDS_P1;SDS_P2;PMS_P1;PMS_P2;Temp;Humidity;BMP_temperature;BMP_pressure;BME280_temperature;BME280_humidity;BME280_pressure;Samples;Min_cycle;Max_cycle;Signal;HPM_P1;HPM_P2
2022/10/19 00:00:46;;;;;;;15.20;3.97;;;;;;;10.56;97.42;101608.00;4937390;29;20217;-74
2022/10/19 00:03:12;;;;;;;7.70;2.70;;;;;;;10.52;96.46;101622.81;4937467;29;20221;-74
2022/10/19 00:05:39;;;;;;;11.90;3.03;;;;;;;10.37;96.41;101627.16;4937198;29;20237;-75
2022/10/19 00:08:05;;;;;;;7.57;3.27;;;;;;;10.23;96.72;101622.75;4937211;29;20220;-75
2022/10/19 00:10:32;;;;;;;7.73;3.30;;;;;;;10.34;97.11;101613.19;4937109;29;20288;-74
2022/10/19 00:13:00;;;;;;;8.10;3.57;;;;;;;10.42;97.07;101610.59;4936907;29;20432;-74
2022/10/19 00:15:26;;;;;;;5.40;2.20;;;;;;;10.55;96.37;101616.72;4936932;29;20240;-74
2022/10/19 00:17:53;;;;;;;8.97;2.90;;;;;;;10.49;95.66;101629.78;4937190;29;20211;-74
2022/10/19 00:20:19;;;;;;;6.83;2.70;;;;;;;10.47;95.45;101647.16;4936818;29;20222;-75
2022/10/19 00:22:49;;;;;;;6.73;2.73;;;;;;;10.39;95.57;101649.78;4937005;29;20209;-75
2022/10/19 00:25:16;;;;;;;8.47;2.87;;;;;;;10.42;95.71;101648.88;4937148;29;20259;-74
2022/10/19 00:27:42;;;;;;;5.40;2.90;;;;;;;10.31;95.59;101669.78;4937067;29;20214;-74
2022/10/19 00:30:11;;;;;;;5.50;2.60;;;;;;;10.12;96.13;101650.53;4936792;29;20215;-74
2022/10/19 00:32:37;;;;;;;7.30;2.77;;;;;;;10.10;96.42;101644.44;4936861;29;20603;-74
2022/10/19 00:35:04;;;;;;;5.03;2.60;;;;;;;10.13;96.45;101640.13;4936765;29;20229;-74
2022/10/19 00:37:30;;;;;;;8.13;3.00;;;;;;;10.24;96.20;101650.56;4936645;29;20213;-74
2022/10/19 00:39:57;;;;;;;11.80;3.37;;;;;;;10.21;95.68;101667.94;4936731;29;20224;-74
2022/10/19 00:42:24;;;;;;;10.67;2.40;;;;;;;10.28;95.81;101677.53;4936766;29;20209;-74
2022/10/19 00:45:04;;;;;;;5.13;2.60;;;;;;;10.22;95.70;101674.91;4936718;29;20206;-74
2022/10/19 00:47:33;;;;;;;6.60;3.17;;;;;;;10.20;95.77;101677.53;4936764;29;20213;-74
2022/10/19 00:50:00;;;;;;;6.93;3.00;;;;;;;10.05;96.33;101673.16;4936309;29;20219;-74
2022/10/19 00:52:27;;;;;;;10.63;4.27;;;;;;;10.14;96.63;101654.88;4936876;29;20211;-75
2022/10/19 00:54:56;;;;;;;30.17;5.83;;;;;;;10.18;96.94;101649.69;4936469;29;20246;-74
2022/10/19 00:57:24;;;;;;;7.90;3.40;;;;;;;10.17;96.91;101641.00;4936463;29;20216;-74
2022/10/19 00:59:51;;;;;;;5.77;2.63;;;;;;;10.06;96.30;101656.59;4936393;29;20594;-75
2022/10/19 01:02:18;;;;;;;6.03;3.10;;;;;;;10.08;97.48;101638.34;4936278;29;20241;-74
2022/10/19 01:04:48;;;;;;;7.30;3.33;;;;;;;10.01;97.42;101637.47;4936124;29;20207;-74
2022/10/19 01:07:15;;;;;;;13.20;3.07;;;;;;;9.98;96.55;101645.28;4936214;29;20270;-74
2022/10/19 01:09:42;;;;;;;7.03;3.10;;;;;;;9.93;96.56;101641.81;4936234;29;20221;-74
2022/10/19 01:12:26;;;;;;;5.63;3.13;;;;;;;9.92;96.69;101659.19;4936052;29;20213;-74
2022/10/19 01:15:06;;;;;;;8.97;2.90;;;;;;;9.83;97.20;101658.25;4936082;29;20236;-75
2022/10/19 01:17:43;;;;;;;12.53;3.00;;;;;;;9.84;97.19;101640.03;4936267;29;20209;-75
2022/10/19 01:20:41;;;;;;;8.27;3.30;;;;;;;9.90;98.11;101629.59;4935960;29;20205;-74
2022/10/19 01:23:38;;;;;;;5.27;3.13;;;;;;;9.87;96.51;101646.97;4935818;29;20229;-75
2022/10/19 01:26:20;;;;;;;8.40;3.13;;;;;;;9.89;96.71;101653.06;4935984;29;20253;-75
2022/10/19 01:29:02;;;;;;;4.97;2.90;;;;;;;9.89;96.30;101646.16;4935902;29;20614;-74
2022/10/19 01:31:37;;;;;;;9.43;3.60;;;;;;;9.82;96.23;101657.41;4935713;29;20217;-74
2022/10/19 01:34:10;;;;;;;11.97;3.70;;;;;;;9.85;95.74;101670.47;4935704;29;20213;-74
2022/10/19 01:36:42;;;;;;;7.27;2.93;;;;;;;9.98;96.41;101668.75;4935746;29;20233;-74
2022/10/19 01:39:13;;;;;;;4.83;2.63;;;;;;;9.98;96.55;101652.25;4935734;29;20209;-74
2022/10/19 01:41:47;;;;;;;4.53;2.30;;;;;;;9.94;94.77;101680.91;4935394;29;20221;-74
2022/10/19 01:44:18;;;;;;;4.07;2.77;;;;;;;10.02;94.41;101709.66;4935436;29;20210;-74
2022/10/19 01:46:50;;;;;;;8.83;2.63;;;;;;;10.11;94.27;101714.03;4935477;29;20235;-74
2022/10/19 01:49:22;;;;;;;11.53;3.97;;;;;;;10.07;93.47;101736.63;4935480;29;20477;-74
2022/10/19 01:51:54;;;;;;;5.83;3.00;;;;;;;10.10;92.19;101761.84;4935372;29;20206;-74
2022/10/19 01:54:23;;;;;;;6.13;2.77;;;;;;;10.22;92.28;101772.34;4935431;29;20212;-74
2022/10/19 01:56:51;;;;;;;5.40;2.90;;;;;;;10.39;93.29;101742.88;4935124;29;20329;-75
2022/10/19 01:59:20;;;;;;;8.43;2.87;;;;;;;10.49;93.91;101724.59;4935731;29;20210;-74
2022/10/19 02:01:51;;;;;;;5.87;2.80;;;;;;;10.58;93.40;101734.19;4935079;29;20217;-74
2022/10/19 02:04:21;;;;;;;6.60;2.57;;;;;;;10.64;92.54;101754.22;4935368;29;20224;-74
2022/10/19 02:06:50;;;;;;;4.23;2.30;;;;;;;10.36;90.08;101819.41;4935110;29;20241;-74
2022/10/19 02:09:18;;;;;;;6.57;2.77;;;;;;;10.35;90.41;101838.56;4935044;29;20209;-74
2022/10/19 02:11:47;;;;;;;5.17;2.53;;;;;;;10.23;90.85;101825.41;4935014;29;20579;-74
2022/10/19 02:14:18;;;;;;;7.23;2.40;;;;;;;10.25;90.72;101827.16;4935316;29;20209;-74
2022/10/19 02:16:51;;;;;;;5.93;2.10;;;;;;;10.23;90.76;101828.91;4934998;29;20230;-74
2022/10/19 02:19:21;;;;;;;6.20;2.53;;;;;;;10.41;90.21;101829.88;4935132;29;20225;-74
2022/10/19 02:21:48;;;;;;;3.70;2.10;;;;;;;10.18;90.52;101841.03;4934699;29;20216;-74
2022/10/19 02:24:15;;;;;;;2.70;1.90;;;;;;;10.13;91.26;101819.28;4935132;29;20220;-74
2022/10/19 02:26:41;;;;;;;5.80;2.60;;;;;;;10.29;91.81;101800.22;4934915;29;20231;-74
2022/10/19 02:29:10;;;;;;;9.47;2.43;;;;;;;10.31;91.86;101788.06;4934988;29;20209;-74
2022/10/19 02:31:37;;;;;;;6.63;2.17;;;;;;;10.43;91.91;101775.94;4934636;29;20217;-74
2022/10/19 02:34:05;;;;;;;6.13;2.37;;;;;;;10.40;91.50;101779.41;4935184;29;20212;-74
2022/10/19 02:36:32;;;;;;;5.97;2.10;;;;;;;10.33;91.26;101785.47;4933750;29;20735;-74
2022/10/19 02:38:59;;;;;;;5.63;1.93;;;;;;;10.27;91.40;101783.69;4934875;29;20223;-74
2022/10/19 02:41:32;;;;;;;4.87;2.23;;;;;;;10.24;92.05;101760.16;4934602;29;20213;-74
2022/10/19 02:44:02;;;;;;;4.23;2.50;;;;;;;10.09;92.68;101745.34;4934779;29;20210;-74
2022/10/19 02:46:34;;;;;;;6.07;2.50;;;;;;;10.06;92.75;101744.44;4934818;29;20239;-74
2022/10/19 02:49:03;;;;;;;5.47;2.13;;;;;;;9.91;93.28;101735.69;4934654;29;20577;-74
2022/10/19 02:51:33;;;;;;;8.27;3.07;;;;;;;9.82;93.20;101725.22;4934470;29;20453;-74
2022/10/19 02:53:59;;;;;;;4.37;2.37;;;;;;;9.82;93.68;101720.00;4934519;29;20216;-74
2022/10/19 02:56:26;;;;;;;5.33;2.73;;;;;;;9.81;94.29;101697.41;4934589;29;20233;-74
2022/10/19 02:58:53;;;;;;;8.67;2.57;;;;;;;9.77;94.34;101698.22;4934514;29;20209;-74
2022/10/19 03:01:19;;;;;;;5.03;2.33;;;;;;;9.77;94.68;101694.75;4934283;29;20224;-74
2022/10/19 03:03:46;;;;;;;3.70;1.93;;;;;;;9.78;94.41;101694.78;4934746;29;20217;-74
2022/10/19 03:06:13;;;;;;;6.10;2.70;;;;;;;9.81;94.68;101693.91;4934672;29;20237;-74
2022/10/19 03:08:41;;;;;;;3.80;2.17;;;;;;;9.81;94.89;101686.97;4934483;29;20221;-74
2022/10/19 03:11:07;;;;;;;5.77;2.97;;;;;;;9.82;94.62;101693.06;4934193;29;20210;-74
2022/10/19 03:13:34;;;;;;;6.33;3.03;;;;;;;9.76;94.82;101693.88;4934457;29;20221;-74
2022/10/19 03:16:07;;;;;;;12.77;3.20;;;;;;;9.69;95.29;101690.41;4934140;29;20240;-74
2022/10/19 03:18:34;;;;;;;14.13;3.13;;;;;;;9.70;95.82;101666.03;4934737;29;20210;-74
2022/10/19 03:21:05;;;;;;;5.97;2.63;;;;;;;9.70;96.41;101645.19;4934677;29;20213;-74
2022/10/19 03:23:32;;;;;;;5.27;3.03;;;;;;;9.68;95.46;101659.09;4934308;29;20211;-74
2022/10/19 03:26:00;;;;;;;5.83;2.97;;;;;;;9.63;95.83;101668.63;4934270;29;20226;-74
2022/10/19 03:28:26;;;;;;;10.17;3.43;;;;;;;9.56;96.14;101672.94;4934183;29;20257;-74
2022/10/19 03:30:52;;;;;;;8.10;3.60;;;;;;;9.56;95.79;101670.34;4934607;29;20217;-74
2022/10/19 03:33:19;;;;;;;6.00;3.10;;;;;;;9.56;96.40;101672.06;4934420;29;20209;-74
2022/10/19 03:35:46;;;;;;;10.20;3.20;;;;;;;9.61;96.16;101659.91;4934002;29;20729;-74
2022/10/19 03:38:12;;;;;;;6.70;3.20;;;;;;;9.57;95.46;101677.28;4934245;29;20205;-74
2022/10/19 03:40:39;;;;;;;7.37;3.40;;;;;;;9.62;96.95;101664.28;4933962;29;20221;-74
2022/10/19 03:43:07;;;;;;;4.07;2.40;;;;;;;9.63;95.55;101666.91;4934633;29;20285;-74
2022/10/19 03:45:33;;;;;;;7.67;3.50;;;;;;;9.64;96.78;101650.38;4934283;29;20253;-74
2022/10/19 03:48:00;;;;;;;5.53;3.00;;;;;;;9.60;96.46;101655.59;4936455;29;20213;-74
2022/10/19 03:50:26;;;;;;;4.17;2.73;;;;;;;9.59;95.90;101659.91;4937527;29;20221;-74
2022/10/19 03:52:55;;;;;;;4.33;3.40;;;;;;;9.60;95.43;101684.25;4937644;29;20212;-74
2022/10/19 03:55:21;;;;;;;7.27;3.23;;;;;;;9.66;95.40;101692.09;4937531;29;20233;-74
2022/10/19 03:57:48;;;;;;;5.10;3.30;;;;;;;9.67;95.50;101694.72;4937761;29;20236;-74
2022/10/19 04:00:16;;;;;;;7.17;3.80;;;;;;;9.70;95.84;101692.13;4937440;29;20220;-74
2022/10/19 04:02:42;;;;;;;4.63;3.13;;;;;;;9.68;95.56;101695.59;4937530;29;20302;-74
2022/10/19 04:05:09;;;;;;;7.77;4.60;;;;;;;9.65;95.33;101699.06;4937342;29;20220;-74
2022/10/19 04:07:35;;;;;;;7.53;3.97;;;;;;;9.65;95.71;101698.16;4937268;29;20221;-74
2022/10/19 04:10:02;;;;;;;10.80;3.20;;;;;;;9.72;96.30;101700.81;4937037;29;20581;-74
2022/10/19 04:12:28;;;;;;;5.43;3.47;;;;;;;9.77;95.65;101707.78;4937466;29;20213;-74
2022/10/19 04:14:55;;;;;;;5.67;3.30;;;;;;;9.69;95.70;101700.81;4937321;29;20580;-74
2022/10/19 04:17:23;;;;;;;9.23;3.40;;;;;;;9.66;95.97;101697.31;4937497;29;20233;-74
2022/10/19 04:19:49;;;;;;;5.20;3.53;;;;;;;9.70;96.86;101686.91;4936980;29;20850;-74
2022/10/19 04:22:16;;;;;;;5.50;3.40;;;;;;;9.71;96.81;101680.84;4936997;29;20210;-74
2022/10/19 04:24:42;;;;;;;7.00;3.47;;;;;;;9.71;97.05;101659.09;4936863;29;20225;-74
2022/10/19 04:27:09;;;;;;;6.93;3.77;;;;;;;9.75;96.12;101684.31;4937204;29;20229;-74
2022/10/19 04:29:35;;;;;;;4.17;3.17;;;;;;;9.72;96.78;101677.34;4936919;29;20213;-74
2022/10/19 04:32:02;;;;;;;5.50;3.30;;;;;;;9.76;97.02;101665.22;4936880;29;20210;-74
2022/10/19 04:34:29;;;;;;;7.27;3.37;;;;;;;9.80;96.62;101679.13;4936969;29;20676;-74
2022/10/19 04:36:58;;;;;;;6.77;3.27;;;;;;;9.77;96.42;101672.16;4936658;29;20238;-74
2022/10/19 04:39:24;;;;;;;5.07;3.30;;;;;;;9.77;97.15;101653.03;4936754;29;20601;-74
2022/10/19 04:41:51;;;;;;;6.53;3.43;;;;;;;9.79;97.20;101657.41;4936664;29;20220;-74
2022/10/19 04:44:17;;;;;;;6.83;3.67;;;;;;;9.73;95.57;101689.53;4947610;28;20241;-73
2022/10/19 04:46:44;;;;;;;6.03;3.50;;;;;;;9.76;95.56;101708.66;4974819;28;20227;-74
2022/10/19 04:49:10;;;;;;;7.17;3.40;;;;;;;9.84;95.79;101706.97;4947721;28;20221;-74
2022/10/19 04:51:38;;;;;;;3.57;3.17;;;;;;;9.86;96.22;101700.88;4945694;29;20202;-73
2022/10/19 04:54:05;;;;;;;5.80;4.37;;;;;;;9.76;95.53;101711.28;4944564;29;20212;-73
2022/10/19 04:56:32;;;;;;;5.53;3.90;;;;;;;9.72;95.77;101713.00;4945947;29;20227;-74
2022/10/19 04:59:00;;;;;;;6.77;4.03;;;;;;;9.78;96.32;101709.56;4945332;29;20727;-73
2022/10/19 05:01:28;;;;;;;7.90;4.07;;;;;;;9.71;96.85;101695.59;4944265;29;20205;-73
2022/10/19 05:03:56;;;;;;;5.73;3.73;;;;;;;9.72;97.10;101682.56;4945229;29;20739;-74
2022/10/19 05:06:23;;;;;;;13.07;3.97;;;;;;;9.78;97.13;101686.94;4946202;29;20225;-74
2022/10/19 05:08:51;;;;;;;7.87;3.53;;;;;;;9.73;97.05;101684.31;4941938;29;20206;-73
2022/10/19 05:11:19;;;;;;;5.43;4.27;;;;;;;9.71;97.29;101682.56;4942153;29;20213;-74
2022/10/19 05:13:46;;;;;;;8.30;3.77;;;;;;;9.71;97.80;101674.72;4944374;29;20210;-74
2022/10/19 05:16:14;;;;;;;9.23;4.20;;;;;;;9.77;96.99;101673.91;4945370;29;20592;-74
2022/10/19 05:18:41;;;;;;;8.07;3.70;;;;;;;9.88;96.27;101693.94;4945930;29;20208;-73
2022/10/19 05:21:10;;;;;;;8.10;3.13;;;;;;;9.91;95.87;101703.50;4944681;29;20202;-73
2022/10/19 05:23:37;;;;;;;8.80;4.03;;;;;;;9.87;96.68;101701.75;4944648;29;20201;-73
2022/10/19 05:26:07;;;;;;;5.33;4.10;;;;;;;9.77;96.37;101706.03;4946145;29;20228;-74
2022/10/19 05:28:34;;;;;;;4.77;3.10;;;;;;;9.78;96.35;101696.50;4944977;29;20287;-74
2022/10/19 05:31:08;;;;;;;8.80;3.67;;;;;;;9.78;96.43;101692.16;4944116;29;20235;-74
2022/10/19 05:33:35;;;;;;;5.00;3.83;;;;;;;9.84;96.51;101691.31;4944815;29;20221;-74
2022/10/19 05:36:10;;;;;;;4.77;2.80;;;;;;;9.94;96.02;101693.97;4944317;29;20225;-82
2022/10/19 05:38:37;;;;;;;7.40;3.13;;;;;;;9.98;95.79;101710.50;4947253;29;20202;-80
2022/10/19 05:41:05;;;;;;;5.87;3.27;;;;;;;10.10;95.49;101727.94;4945573;29;20205;-80
2022/10/19 05:43:32;;;;;;;5.73;2.70;;;;;;;10.12;94.49;101736.63;4947097;29;20203;-81
2022/10/19 05:46:04;;;;;;;8.87;3.57;;;;;;;10.19;94.78;101745.34;4952614;29;20703;-80
2022/10/19 05:48:32;;;;;;;9.23;3.43;;;;;;;10.23;94.28;101761.03;4936867;29;20272;-82
2022/10/19 05:50:59;;;;;;;6.20;3.57;;;;;;;10.22;94.21;101766.25;4936738;29;20213;-80
2022/10/19 05:53:25;;;;;;;5.47;3.43;;;;;;;10.10;94.69;101765.31;4936775;29;20209;-81
2022/10/19 05:55:52;;;;;;;8.63;3.50;;;;;;;10.08;95.88;101729.66;4936949;29;20230;-81
2022/10/19 05:58:20;;;;;;;6.63;3.30;;;;;;;10.14;96.61;101701.00;4936818;29;20237;-84
2022/10/19 06:00:51;;;;;;;11.97;3.40;;;;;;;10.21;96.12;101707.97;4936648;29;20690;-83
2022/10/19 06:03:17;;;;;;;3.00;2.70;;;;;;;10.09;94.95;101734.03;4936804;29;20226;-83
2022/10/19 06:05:44;;;;;;;5.57;3.30;;;;;;;10.28;95.01;101735.81;4936163;29;20237;-81
2022/10/19 06:08:10;;;;;;;7.57;3.10;;;;;;;10.24;94.92;101733.19;4936368;29;20213;-83
2022/10/19 06:10:37;;;;;;;4.13;2.60;;;;;;;10.26;94.91;101741.91;4936100;29;20212;-80
2022/10/19 06:13:03;;;;;;;8.70;3.53;;;;;;;10.37;95.51;101728.94;4936772;29;20220;-83
2022/10/19 06:15:35;;;;;;;7.37;2.80;;;;;;;10.33;94.19;101744.59;4936379;29;20591;-83
2022/10/19 06:18:03;;;;;;;11.50;2.80;;;;;;;10.30;93.73;101759.34;4936285;29;20272;-80
2022/10/19 06:20:30;;;;;;;4.47;2.83;;;;;;;10.17;92.16;101802.78;4936911;29;20206;-80
2022/10/19 06:22:56;;;;;;;3.80;2.10;;;;;;;10.17;91.32;101830.59;4936105;29;20213;-83
2022/10/19 06:25:23;;;;;;;5.93;2.23;;;;;;;10.37;91.20;101851.63;4935837;29;20237;-81
2022/10/19 06:27:49;;;;;;;4.80;3.23;;;;;;;10.50;92.45;101836.00;4936042;29;20572;-82
2022/10/19 06:30:16;;;;;;;6.10;3.20;;;;;;;10.38;92.24;101838.56;4935758;29;20214;-81
2022/10/19 06:32:44;;;;;;;58.07;38.83;;;;;;;10.42;92.53;101832.47;4935905;29;20209;-80
2022/10/19 06:35:10;;;;;;;20.70;18.53;;;;;;;10.36;93.40;101816.78;4935440;29;20679;-80
2022/10/19 06:37:37;;;;;;;22.00;17.87;;;;;;;10.37;93.15;101815.94;4936185;29;20237;-80
2022/10/19 06:40:04;;;;;;;6.30;4.23;;;;;;;10.29;93.76;101801.97;4938346;29;20234;-80
2022/10/19 06:42:30;;;;;;;5.13;3.50;;;;;;;10.27;93.64;101807.16;4937615;29;20584;-80
2022/10/19 06:44:57;;;;;;;4.23;3.73;;;;;;;10.25;94.78;101784.53;4936822;29;20213;-79
2022/10/19 06:47:29;;;;;;;9.47;4.10;;;;;;;10.24;95.30;101772.34;4937154;29;20209;-79
2022/10/19 06:49:57;;;;;;;4.57;4.17;;;;;;;10.16;95.17;101761.88;4936246;29;20321;-79
2022/10/19 06:52:24;;;;;;;7.77;3.70;;;;;;;10.21;96.03;101749.72;4937753;29;20221;-78
2022/10/19 06:54:50;;;;;;;6.70;4.60;;;;;;;10.35;97.44;101713.28;4936937;29;20213;-79
2022/10/19 06:57:17;;;;;;;6.17;3.30;;;;;;;10.44;96.40;101722.84;4936799;29;20229;-79
2022/10/19 06:59:43;;;;;;;5.33;3.87;;;;;;;10.42;94.32;101764.59;4935050;29;20577;-77
2022/10/19 07:02:11;;;;;;;4.33;3.30;;;;;;;10.42;94.27;101779.41;4935094;29;20224;-78
2022/10/19 07:04:37;;;;;;;5.63;3.57;;;;;;;10.63;93.98;101783.84;4935236;29;20257;-77
2022/10/19 07:07:06;;;;;;;10.57;3.60;;;;;;;10.74;93.14;101802.97;4935400;29;20229;-77
2022/10/19 07:09:32;;;;;;;5.17;3.23;;;;;;;10.78;91.98;101825.63;4935640;29;20209;-82
2022/10/19 07:11:59;;;;;;;3.03;2.77;;;;;;;10.58;91.20;101862.13;4935005;29;20213;-80
2022/10/19 07:14:27;;;;;;;7.37;2.93;;;;;;;10.54;91.66;101878.66;4935050;29;20294;-79
2022/10/19 07:16:54;;;;;;;4.37;2.70;;;;;;;10.71;91.60;101873.50;4934653;29;20237;-80
2022/10/19 07:19:21;;;;;;;8.33;3.40;;;;;;;10.71;91.43;101881.34;4935074;29;20210;-79
2022/10/19 07:21:50;;;;;;;4.17;3.73;;;;;;;10.69;90.70;101894.38;4935227;29;20213;-79
2022/10/19 07:24:18;;;;;;;4.07;2.40;;;;;;;10.76;90.54;101897.03;4938915;29;20220;-78
2022/10/19 07:26:45;;;;;;;3.07;2.60;;;;;;;10.72;90.18;101920.53;4946084;29;20223;-78
2022/10/19 07:29:11;;;;;;;4.80;3.00;;;;;;;10.76;90.81;101904.84;4938760;29;20217;-79
2022/10/19 07:31:38;;;;;;;5.33;3.37;;;;;;;10.95;90.92;101901.44;4938262;29;20205;-78
2022/10/19 07:34:05;;;;;;;5.13;2.83;;;;;;;11.13;90.48;101908.47;4938464;29;20221;-78
2022/10/19 07:36:35;;;;;;;5.30;2.93;;;;;;;11.31;89.66;101929.41;4938524;29;20240;-78
2022/10/19 07:39:04;;;;;;;7.23;5.37;;;;;;;11.21;88.01;101974.69;4938189;29;20210;-78
2022/10/19 07:41:34;;;;;;;5.43;3.30;;;;;;;11.24;88.89;101981.69;4938707;29;20213;-82
2022/10/19 07:44:01;;;;;;;23.37;12.00;;;;;;;11.41;88.69;101981.72;4944137;29;20201;-82
2022/10/19 07:46:32;;;;;;;27.43;11.77;;;;;;;11.52;88.18;101983.50;4957201;28;20246;-74
2022/10/19 07:48:59;;;;;;;6.93;5.33;;;;;;;11.68;87.77;101999.22;4956910;29;20295;-74
2022/10/19 07:51:26;;;;;;;13.23;6.90;;;;;;;11.74;87.71;102020.16;4956591;29;20209;-74
2022/10/19 07:53:53;;;;;;;9.90;5.10;;;;;;;11.82;87.17;102028.03;4956574;29;20581;-75
2022/10/19 07:56:21;;;;;;;15.43;9.00;;;;;;;11.91;86.41;102047.25;4956862;28;20620;-75
2022/10/19 07:58:50;;;;;;;8.83;5.30;;;;;;;11.76;87.22;102039.34;4956541;29;20232;-74
2022/10/19 08:01:19;;;;;;;10.83;6.23;;;;;;;11.86;88.04;102028.00;4956657;29;20229;-75
2022/10/19 08:03:46;;;;;;;13.00;7.27;;;;;;;11.90;88.37;102008.88;4956507;29;20213;-75
2022/10/19 08:06:16;;;;;;;5.73;4.30;;;;;;;12.02;88.15;102005.38;4956451;29;20237;-75
2022/10/19 08:08:43;;;;;;;4.73;2.90;;;;;;;12.12;87.60;102011.50;4956931;28;20582;-76
2022/10/19 08:11:12;;;;;;;5.37;3.60;;;;;;;12.15;86.85;102035.06;4956184;29;20231;-75
2022/10/19 08:13:40;;;;;;;8.50;2.77;;;;;;;12.18;86.07;102048.13;4956576;29;20218;-75
2022/10/19 08:16:21;;;;;;;7.20;2.30;;;;;;;12.34;85.07;102076.94;4956069;29;20575;-75
2022/10/19 08:18:48;;;;;;;9.90;1.90;;;;;;;12.34;83.58;102130.19;4956367;28;20238;-75
2022/10/19 08:21:15;;;;;;;7.53;2.50;;;;;;;12.43;82.99;102152.91;4955922;29;20578;-75
2022/10/19 08:23:41;;;;;;;5.83;1.80;;;;;;;12.33;79.95;102186.06;4956405;29;20216;-74
2022/10/19 08:26:08;;;;;;;6.60;1.27;;;;;;;12.40;79.73;102253.28;4956194;29;20233;-74
2022/10/19 08:28:34;;;;;;;5.43;1.47;;;;;;;12.42;78.91;102282.09;4956616;29;20209;-75
2022/10/19 08:31:11;;;;;;;6.03;1.13;;;;;;;12.48;78.14;102314.41;4955982;29;20702;-74
2022/10/19 08:33:37;;;;;;;3.73;0.93;;;;;;;12.57;77.46;102355.50;4956017;28;20213;-74
2022/10/19 08:36:05;;;;;;;5.73;1.33;;;;;;;12.57;74.55;102407.91;4956122;29;20235;-74
2022/10/19 08:38:31;;;;;;;2.07;0.80;;;;;;;12.64;73.59;102467.28;4956114;29;20236;-75
2022/10/19 08:41:04;;;;;;;2.57;0.87;;;;;;;12.70;72.37;102503.13;4955684;29;20210;-75
2022/10/19 08:43:36;;;;;;;3.67;1.00;;;;;;;12.76;71.62;102518.03;4955635;29;20214;-75
2022/10/19 08:46:13;;;;;;;9.50;1.33;;;;;;;12.78;69.69;102573.94;4955644;29;20241;-75
2022/10/19 08:48:41;;;;;;;5.13;1.10;;;;;;;12.80;68.47;102630.75;4955887;28;20212;-75
2022/10/19 08:51:12;;;;;;;5.03;1.10;;;;;;;12.82;68.54;102642.09;4955615;29;20215;-74
2022/10/19 08:53:49;;;;;;;2.23;1.00;;;;;;;12.88;69.22;102651.75;4955699;28;20218;-74
2022/10/19 08:56:24;;;;;;;4.47;1.50;;;;;;;12.93;66.80;102684.16;4955881;28;20233;-76
2022/10/19 08:59:05;;;;;;;3.77;1.40;;;;;;;12.92;67.13;102703.34;4955420;28;20669;-75
2022/10/19 09:01:40;;;;;;;6.27;0.90;;;;;;;12.98;66.99;102707.75;4955739;29;20194;-75
2022/10/19 09:04:14;;;;;;;6.77;1.00;;;;;;;12.97;67.91;102699.03;4955748;29;20208;-74
2022/10/19 09:06:50;;;;;;;1.50;0.83;;;;;;;12.84;66.58;102700.69;4955723;29;20241;-75
2022/10/19 09:09:19;;;;;;;4.77;0.90;;;;;;;12.86;66.02;102705.91;4954922;29;20556;-75
2022/10/19 09:11:48;;;;;;;6.30;0.90;;;;;;;12.81;65.95;102726.00;4955007;29;20711;-76
2022/10/19 09:14:30;;;;;;;4.60;1.00;;;;;;;12.83;65.26;102732.13;4955785;29;20206;-75
2022/10/19 09:17:02;;;;;;;2.43;0.87;;;;;;;12.90;65.98;102707.69;4955409;29;20234;-75
2022/10/19 09:19:30;;;;;;;4.73;0.90;;;;;;;12.90;66.95;102687.63;4955523;29;20217;-75
2022/10/19 09:21:59;;;;;;;3.77;0.93;;;;;;;12.95;66.77;102673.69;4955118;29;20245;-75
2022/10/19 09:24:34;;;;;;;3.77;0.80;;;;;;;12.98;65.98;102656.19;4955550;29;20216;-75
2022/10/19 09:27:01;;;;;;;4.40;1.10;;;;;;;13.03;67.04;102648.38;4955281;29;20233;-75
2022/10/19 09:29:36;;;;;;;2.57;0.80;;;;;;;13.03;66.37;102649.25;4955095;28;20211;-75
2022/10/19 09:32:13;;;;;;;4.33;0.70;;;;;;;13.13;66.63;102646.69;4949470;29;20213;-75
2022/10/19 09:34:46;;;;;;;3.87;0.80;;;;;;;13.16;66.65;102644.06;4954658;29;20224;-74
2022/10/19 09:37:13;;;;;;;2.40;1.00;;;;;;;13.17;66.60;102630.97;4954802;29;20634;-75
2022/10/19 09:39:39;;;;;;;2.00;0.93;;;;;;;13.17;64.72;102654.59;4955637;29;20206;-74
2022/10/19 09:42:13;;;;;;;3.57;0.97;;;;;;;12.95;64.75;102697.28;4951906;29;20206;-75
2022/10/19 09:44:39;;;;;;;12.77;1.40;;;;;;;13.01;65.66;102671.97;4942464;28;20561;-75
2022/10/19 09:47:30;;;;;;;3.23;0.90;;;;;;;13.09;66.38;102646.66;4943015;29;20227;-74
2022/10/19 09:50:08;;;;;;;3.43;0.80;;;;;;;12.99;64.92;102652.72;4950919;29;20664;-74
2022/10/19 09:52:36;;;;;;;3.57;0.90;;;;;;;13.09;64.78;102651.91;4954460;29;20210;-74
2022/10/19 09:55:05;;;;;;;6.23;1.20;;;;;;;13.18;63.72;102679.97;4954245;29;20270;-74
2022/10/19 09:57:33;;;;;;;9.00;1.27;;;;;;;13.21;63.16;102702.69;4954368;29;20218;-74
2022/10/19 09:59:59;;;;;;;5.40;1.37;;;;;;;13.23;62.36;102719.31;4954152;29;20210;-74
2022/10/19 10:02:32;;;;;;;2.93;1.00;;;;;;;13.23;62.71;102749.03;4954146;29;20700;-75
2022/10/19 10:05:06;;;;;;;4.20;1.00;;;;;;;13.23;63.57;102742.91;4954420;29;20209;-75
2022/10/19 10:07:36;;;;;;;3.73;1.03;;;;;;;13.28;63.28;102730.72;4945418;29;20223;-75
2022/10/19 10:10:08;;;;;;;5.17;1.00;;;;;;;13.25;62.40;102736.81;4944413;29;20210;-75
2022/10/19 10:12:35;;;;;;;4.03;0.80;;;;;;;13.30;63.69;102724.66;4943307;28;20203;-75
2022/10/19 10:15:04;;;;;;;2.83;0.87;;;;;;;13.41;64.70;102689.72;4944473;29;20205;-75
2022/10/19 10:17:32;;;;;;;4.50;1.00;;;;;;;13.43;61.96;102706.34;4944766;29;20202;-75
2022/10/19 10:20:15;;;;;;;1.43;0.70;;;;;;;13.40;62.05;102730.84;4942993;29;20226;-75
2022/10/19 10:22:52;;;;;;;2.77;0.80;;;;;;;13.40;61.63;102745.69;4943552;29;20206;-75
2022/10/19 10:25:19;;;;;;;3.13;0.90;;;;;;;13.37;62.18;102741.28;4943393;29;20737;-75
2022/10/19 10:27:55;;;;;;;4.00;1.20;;;;;;;13.38;62.92;102742.16;4943737;29;20203;-75
2022/10/19 10:30:21;;;;;;;3.17;1.23;;;;;;;13.41;63.37;102706.34;4942981;29;20565;-75
2022/10/19 10:32:53;;;;;;;2.93;0.90;;;;;;;13.46;63.91;102677.53;4944011;29;20197;-78
2022/10/19 10:35:23;;;;;;;3.00;1.10;;;;;;;13.56;63.25;102665.28;4945339;29;20223;-80
2022/10/19 10:37:49;;;;;;;6.67;1.03;;;;;;;13.54;62.88;102683.69;4948054;29;20229;-79
2022/10/19 10:40:22;;;;;;;3.87;1.23;;;;;;;13.55;63.11;102687.19;4952654;29;20297;-79
2022/10/19 10:42:51;;;;;;;5.70;1.10;;;;;;;13.61;62.51;102674.09;4943723;29;20210;-81
2022/10/19 10:45:23;;;;;;;2.37;1.00;;;;;;;13.68;62.53;102697.75;4942997;29;20228;-81
2022/10/19 10:47:52;;;;;;;6.43;1.20;;;;;;;13.76;62.90;102691.66;4942410;29;20204;-74
2022/10/19 10:50:23;;;;;;;3.97;1.60;;;;;;;13.80;61.54;102699.53;4951509;29;20215;-81
2022/10/19 10:52:58;;;;;;;5.90;1.07;;;;;;;13.85;61.33;102721.41;4953887;29;20203;-80
2022/10/19 10:55:26;;;;;;;6.47;1.37;;;;;;;13.90;61.94;102717.06;4954281;29;20310;-80
2022/10/19 10:58:02;;;;;;;1.80;1.17;;;;;;;13.96;61.64;102704.84;4958062;28;20212;-80
2022/10/19 11:00:29;;;;;;;3.33;1.47;;;;;;;13.89;60.90;102707.47;4961324;29;20210;-81
2022/10/19 11:03:07;;;;;;;2.97;1.23;;;;;;;13.88;62.17;102708.31;4961130;29;20210;-83
2022/10/19 11:05:36;;;;;;;5.67;1.30;;;;;;;13.91;61.24;102686.44;4960897;29;20246;-82
2022/10/19 11:08:12;;;;;;;1.97;0.93;;;;;;;14.01;60.76;102708.34;4963061;29;20222;-80
2022/10/19 11:10:43;;;;;;;2.90;1.00;;;;;;;14.04;61.80;102709.25;4964093;29;20190;-73
2022/10/19 11:13:17;;;;;;;4.77;1.87;;;;;;;14.04;61.86;102679.50;4957265;29;20218;-73
2022/10/19 11:15:52;;;;;;;3.60;1.20;;;;;;;14.00;61.30;102672.47;4957100;29;20255;-74
2022/10/19 11:18:25;;;;;;;3.07;1.23;;;;;;;13.99;62.34;102662.84;4956948;29;20237;-72
2022/10/19 11:21:01;;;;;;;2.13;0.97;;;;;;;13.99;61.38;102642.69;4956719;29;20221;-74
2022/10/19 11:23:40;;;;;;;1.33;0.83;;;;;;;14.01;61.02;102637.44;4956720;29;20208;-73
2022/10/19 11:26:19;;;;;;;2.73;1.20;;;;;;;14.07;61.30;102646.25;4956749;28;20237;-74
2022/10/19 11:29:02;;;;;;;4.53;1.30;;;;;;;14.08;60.09;102669.00;4956137;29;20217;-72
2022/10/19 11:31:38;;;;;;;4.00;1.30;;;;;;;14.04;60.73;102683.00;4956534;29;20298;-74
2022/10/19 11:34:20;;;;;;;4.33;1.27;;;;;;;14.07;60.29;102674.22;4956441;29;20220;-73
2022/10/19 11:36:54;;;;;;;2.10;0.80;;;;;;;14.09;60.55;102675.09;4956251;29;20239;-73